Leli — HP6679 — position and weather

sailwx.info

Track history (hours):
 
Tides and Currents Weather Stations Pressure Air Temp Water Temp Dewpoint Dewpoint Depression Visibility Wind Speed Wind Dir Waves Ship Positions

Leli

Last reported at 2018-Jan-23 00:03 UTC. Time now 2018-Jan-23 08:11 UTC.
Position N 36°50' E 001°00'.

Length 96 m; draft 6.1 m.

Type: Tanker. MMSI: 356122000.

Date/timePositionNaut miles runAvg speedWind from/ knotsBaromVisibWave heightAir tempDewpointWater temp
2018-Jan-23 00:03N 36°50' E 001°00'011.4
2018-Jan-23 00:00N 36°50' E 001°01'711.1
2018-Jan-22 23:24N 36°50' E 001°09'510.5
2018-Jan-22 22:53N 36°51' E 001°16'410.5
2018-Jan-22 22:30N 36°52' E 001°21'1011.5
2018-Jan-22 21:36N 36°53' E 001°34'111.5
2018-Jan-22 21:30N 36°53' E 001°35'611.7
2018-Jan-22 20:59N 36°54' E 001°42'511.4
2018-Jan-22 20:30N 36°55' E 001°49'1910.8
2018-Jan-22 18:45N 36°58' E 002°13'310.4
2018-Jan-22 18:28N 36°58' E 002°16'510.7
2018-Jan-22 18:00N 36°59' E 002°22'13711.5
2018-Jan-22 06:05N 37°19' E 005°12'2 9.8
2018-Jan-22 05:55N 37°19' E 005°14'4 9.7
2018-Jan-22 05:30N 37°20' E 005°19'5 9.8
2018-Jan-22 05:00N 37°20' E 005°25'510.0
2018-Jan-22 04:30N 37°21' E 005°31'510.2
2018-Jan-22 04:00N 37°21' E 005°38'510.2
2018-Jan-22 03:30N 37°22' E 005°44'610.9
2018-Jan-22 02:56N 37°23' E 005°52'810.5
2018-Jan-22 02:13N 37°23' E 006°01'402 9.2
2018-Jan-20 06:28N 36°32' E 014°21'611.5
2018-Jan-20 05:57N 36°30' E 014°28'511.7
2018-Jan-20 05:29N 36°28' E 014°34'430 9.0
2018-Jan-18 05:55N 36°51' E 023°29'13 8.9
2018-Jan-18 04:24N 36°58' E 023°43'3 7.9
2018-Jan-18 04:00N 37°00' E 023°46'4 7.4
2018-Jan-18 03:31N 37°03' E 023°49'4 7.6
2018-Jan-18 03:00N 37°06' E 023°52'4 7.4
2018-Jan-18 02:30N 37°09' E 023°55'4 7.3
2018-Jan-18 02:00N 37°11' E 023°58'4 7.7
2018-Jan-18 01:29N 37°14' E 024°02'4 7.7
2018-Jan-18 01:00N 37°17' E 024°05'8 7.7
2018-Jan-18 00:00N 37°23' E 024°11'0 8.1
2018-Jan-17 23:58N 37°23' E 024°11'  
Track history (hours):
 
Tides and Currents Weather Stations Pressure Air Temp Water Temp Dewpoint Dewpoint Depression Visibility Wind Speed Wind Dir Waves Ship Positions

Leli

Last reported at 2018-Jan-23 00:03 UTC. Time now 2018-Jan-23 08:11 UTC.
Position N 36°50' E 001°00'.

Length 96 m; draft 6.1 m.

Type: Tanker. MMSI: 356122000.

Date/timePositionNaut miles runAvg speedWind from/ knotsBaromVisibWave heightAir tempDewpointWater temp
2018-Jan-23 00:03N 36°50' E 001°00'011.4
2018-Jan-23 00:00N 36°50' E 001°01'711.1
2018-Jan-22 23:24N 36°50' E 001°09'510.5
2018-Jan-22 22:53N 36°51' E 001°16'410.5
2018-Jan-22 22:30N 36°52' E 001°21'1011.5
2018-Jan-22 21:36N 36°53' E 001°34'111.5
2018-Jan-22 21:30N 36°53' E 001°35'611.7
2018-Jan-22 20:59N 36°54' E 001°42'511.4
2018-Jan-22 20:30N 36°55' E 001°49'1910.8
2018-Jan-22 18:45N 36°58' E 002°13'310.4
2018-Jan-22 18:28N 36°58' E 002°16'510.7
2018-Jan-22 18:00N 36°59' E 002°22'13711.5
2018-Jan-22 06:05N 37°19' E 005°12'2 9.8
2018-Jan-22 05:55N 37°19' E 005°14'4 9.7
2018-Jan-22 05:30N 37°20' E 005°19'5 9.8
2018-Jan-22 05:00N 37°20' E 005°25'510.0
2018-Jan-22 04:30N 37°21' E 005°31'510.2
2018-Jan-22 04:00N 37°21' E 005°38'510.2
2018-Jan-22 03:30N 37°22' E 005°44'610.9
2018-Jan-22 02:56N 37°23' E 005°52'810.5
2018-Jan-22 02:13N 37°23' E 006°01'402 9.2
2018-Jan-20 06:28N 36°32' E 014°21'611.5
2018-Jan-20 05:57N 36°30' E 014°28'511.7
2018-Jan-20 05:29N 36°28' E 014°34'430 9.0
2018-Jan-18 05:55N 36°51' E 023°29'13 8.9
2018-Jan-18 04:24N 36°58' E 023°43'3 7.9
2018-Jan-18 04:00N 37°00' E 023°46'4 7.4
2018-Jan-18 03:31N 37°03' E 023°49'4 7.6
2018-Jan-18 03:00N 37°06' E 023°52'4 7.4
2018-Jan-18 02:30N 37°09' E 023°55'4 7.3
2018-Jan-18 02:00N 37°11' E 023°58'4 7.7
2018-Jan-18 01:29N 37°14' E 024°02'4 7.7
2018-Jan-18 01:00N 37°17' E 024°05'8 7.7
2018-Jan-18 00:00N 37°23' E 024°11'0 8.1
2018-Jan-17 23:58N 37°23' E 024°11'  

Dump ship's entire track history